Phoenix, AZ (85017)

4:57 PM MST on April 21, 2015 (GMT -0700)
Phoenix S of Christown | | Change Station
CLOSE
Current Station
Personal Weather Station
Location: Phoenix, AZ
Elevation: 1152 ft
Nearby Weather Stations

Elev 1152 ft 33.51 °N, 112.10 °W | Updated 14 minutes ago

Clear
Clear
87.9 °F
Feels Like 84 °F
N
0.0
Wind Variable Wind from SSW
Gusts 2.0 mph

Today
High -- | Low -- °F
--% Chance of Precip.
Yesterday
High -- | Low -- °F
Precip. -- in
5:51 AM 7:03 PM
Waxing Crescent, 13% visible
Pressure 29.65 in
Visibility 10.0 miles
Clouds Scattered Clouds 22000 ft
Mostly Cloudy 25000 ft
Heat Index 84 °F
Dew Point 20 °F
Humidity 8%
Rainfall 0.00 in
Snow Depth Not available.
UV 1 out of 12
Pollen 9.80 out of 12
Air Quality Not available.
Flu Activity Local Activity
METAR KPHX 212351Z 19010G15KT 10SM SCT220 BKN250 31/M10 A2970 RMK AO2 SLP039 T03111100 10328 20278 56023

More Conditions Fewer Conditions

Pressure 29.65 in
Visibility 10.0 miles
Clouds Scattered Clouds 22000 ft
Mostly Cloudy 25000 ft
Heat Index 84 °F
Dew Point 20 °F
Humidity 8%
Rainfall 0.00 in
Snow Depth Not available.
UV 1 out of 12
Pollen 9.80 out of 12
Air Quality Not available.
Flu Activity Local Activity
METAR KPHX 212351Z 19010G15KT 10SM SCT220 BKN250 31/M10 A2970 RMK AO2 SLP039 T03111100 10328 20278 56023

More Conditions Fewer Conditions

10-Day Weather Forecast

Almanac

Astronomy

Apr. 21, 2015 Rise Set
Actual Time
Civil Twilight
Nautical Twilight
Astronomical Twilight
Moon
Length of Visible Light
Length of Day
Tomorrow will be .
, % of the Moon is Illuminated

Today's Extremes

State Highs State Lows

Community

WunderPhotos

Upload Photos

1,815,583 photos uploaded!

WunderBlogs® & News

Nearby

Air Quality

  Air Quality AQ Index Pollutant
Not available.

Snow Depth

Station Depth Elevation

Earthquake Activity

City Distance Mag. Time & Date
Minimum magnitude displayed is 2.5.

Coastal Water Temperatures

Place Temperature

Stations

Nearby Weather Stations

Station Location Temp. Windchill Dew Point Humidity Wind Precip. Elev Updated Type